sensor_id;sensor_type;location;lat;lon;timestamp;temperature;humidity
21267;DHT22;10791;53.108;18.326;2022-09-13T00:03:03;8.10;99.90
21267;DHT22;10791;53.108;18.326;2022-09-13T00:08:08;8.00;99.90
21267;DHT22;10791;53.108;18.326;2022-09-13T00:13:13;7.90;99.90
21267;DHT22;10791;53.108;18.326;2022-09-13T00:18:18;7.90;99.90
21267;DHT22;10791;53.108;18.326;2022-09-13T00:23:21;8.00;99.90
21267;DHT22;10791;53.108;18.326;2022-09-13T00:28:25;7.90;99.90
21267;DHT22;10791;53.108;18.326;2022-09-13T00:33:29;7.80;99.90
21267;DHT22;10791;53.108;18.326;2022-09-13T00:38:35;7.80;99.90
21267;DHT22;10791;53.108;18.326;2022-09-13T00:48:49;7.70;99.90
21267;DHT22;10791;53.108;18.326;2022-09-13T00:53:55;7.60;99.90
21267;DHT22;10791;53.108;18.326;2022-09-13T00:59:06;7.50;99.90
21267;DHT22;10791;53.108;18.326;2022-09-13T01:04:10;7.50;99.90
21267;DHT22;10791;53.108;18.326;2022-09-13T01:09:14;7.50;99.90
21267;DHT22;10791;53.108;18.326;2022-09-13T01:14:19;7.60;99.90
21267;DHT22;10791;53.108;18.326;2022-09-13T01:19:23;7.50;99.90
21267;DHT22;10791;53.108;18.326;2022-09-13T01:24:54;7.40;99.90
21267;DHT22;10791;53.108;18.326;2022-09-13T01:41:05;7.40;99.90
21267;DHT22;10791;53.108;18.326;2022-09-13T01:52:00;7.50;99.90
21267;DHT22;10791;53.108;18.326;2022-09-13T02:02:45;7.50;99.90
21267;DHT22;10791;53.108;18.326;2022-09-13T02:07:55;7.40;99.90
21267;DHT22;10791;53.108;18.326;2022-09-13T02:13:03;7.40;99.90
21267;DHT22;10791;53.108;18.326;2022-09-13T02:18:20;7.40;99.90
21267;DHT22;10791;53.108;18.326;2022-09-13T02:23:38;7.30;99.90
21267;DHT22;10791;53.108;18.326;2022-09-13T02:28:54;7.30;99.90
21267;DHT22;10791;53.108;18.326;2022-09-13T02:34:02;7.20;99.90
21267;DHT22;10791;53.108;18.326;2022-09-13T02:39:27;7.20;99.90
21267;DHT22;10791;53.108;18.326;2022-09-13T02:44:35;7.20;99.90
21267;DHT22;10791;53.108;18.326;2022-09-13T02:55:04;7.10;99.90
21267;DHT22;10791;53.108;18.326;2022-09-13T03:00:11;7.00;99.90
21267;DHT22;10791;53.108;18.326;2022-09-13T03:05:16;7.00;99.90
21267;DHT22;10791;53.108;18.326;2022-09-13T03:10:20;6.90;99.90
21267;DHT22;10791;53.108;18.326;2022-09-13T03:21:43;6.80;99.90
21267;DHT22;10791;53.108;18.326;2022-09-13T03:27:34;6.80;99.90
21267;DHT22;10791;53.108;18.326;2022-09-13T03:32:58;6.80;99.90
21267;DHT22;10791;53.108;18.326;2022-09-13T03:38:05;6.80;99.90
21267;DHT22;10791;53.108;18.326;2022-09-13T03:43:23;6.80;99.90
21267;DHT22;10791;53.108;18.326;2022-09-13T03:48:29;6.70;99.90
21267;DHT22;10791;53.108;18.326;2022-09-13T03:53:44;6.60;99.90
21267;DHT22;10791;53.108;18.326;2022-09-13T03:58:48;6.50;99.90
21267;DHT22;10791;53.108;18.326;2022-09-13T04:03:52;6.50;99.90
21267;DHT22;10791;53.108;18.326;2022-09-13T04:08:58;6.40;99.90
21267;DHT22;10791;53.108;18.326;2022-09-13T04:14:03;6.50;99.90
21267;DHT22;10791;53.108;18.326;2022-09-13T04:19:07;6.50;99.90
21267;DHT22;10791;53.108;18.326;2022-09-13T04:24:11;6.60;99.90
21267;DHT22;10791;53.108;18.326;2022-09-13T04:29:15;6.60;99.90
21267;DHT22;10791;53.108;18.326;2022-09-13T04:34:21;6.60;99.90
21267;DHT22;10791;53.108;18.326;2022-09-13T04:39:25;6.60;99.90
21267;DHT22;10791;53.108;18.326;2022-09-13T04:44:31;6.70;99.90
21267;DHT22;10791;53.108;18.326;2022-09-13T04:49:37;6.70;99.90
21267;DHT22;10791;53.108;18.326;2022-09-13T04:54:42;6.80;99.90
21267;DHT22;10791;53.108;18.326;2022-09-13T04:59:46;6.90;99.90
21267;DHT22;10791;53.108;18.326;2022-09-13T05:04:49;7.10;99.90
21267;DHT22;10791;53.108;18.326;2022-09-13T05:09:53;7.30;99.90
21267;DHT22;10791;53.108;18.326;2022-09-13T05:14:56;7.40;99.90
21267;DHT22;10791;53.108;18.326;2022-09-13T05:20:02;7.50;99.90
21267;DHT22;10791;53.108;18.326;2022-09-13T05:25:08;7.70;99.90
21267;DHT22;10791;53.108;18.326;2022-09-13T05:30:11;7.80;99.90
21267;DHT22;10791;53.108;18.326;2022-09-13T05:35:16;8.00;99.90
21267;DHT22;10791;53.108;18.326;2022-09-13T05:40:20;8.10;99.90
21267;DHT22;10791;53.108;18.326;2022-09-13T05:45:24;8.20;99.90
21267;DHT22;10791;53.108;18.326;2022-09-13T05:50:27;8.40;99.90
21267;DHT22;10791;53.108;18.326;2022-09-13T05:55:51;8.50;99.90
21267;DHT22;10791;53.108;18.326;2022-09-13T06:00:56;8.70;99.90
21267;DHT22;10791;53.108;18.326;2022-09-13T06:06:00;8.90;99.90
21267;DHT22;10791;53.108;18.326;2022-09-13T06:11:08;9.00;99.90
21267;DHT22;10791;53.108;18.326;2022-09-13T06:16:15;9.20;99.90
21267;DHT22;10791;53.108;18.326;2022-09-13T06:21:21;9.40;99.90
21267;DHT22;10791;53.108;18.326;2022-09-13T06:26:30;9.50;99.90
21267;DHT22;10791;53.108;18.326;2022-09-13T06:31:34;9.70;99.90
21267;DHT22;10791;53.108;18.326;2022-09-13T06:36:37;9.90;99.90
21267;DHT22;10791;53.108;18.326;2022-09-13T06:41:41;10.10;99.90
21267;DHT22;10791;53.108;18.326;2022-09-13T06:46:45;10.20;99.90
21267;DHT22;10791;53.108;18.326;2022-09-13T06:51:49;10.50;99.90
21267;DHT22;10791;53.108;18.326;2022-09-13T06:56:52;10.70;99.90
21267;DHT22;10791;53.108;18.326;2022-09-13T07:01:55;10.70;99.90
21267;DHT22;10791;53.108;18.326;2022-09-13T07:07:00;11.00;99.90
21267;DHT22;10791;53.108;18.326;2022-09-13T07:12:04;11.30;99.90
21267;DHT22;10791;53.108;18.326;2022-09-13T07:17:09;11.50;99.90
21267;DHT22;10791;53.108;18.326;2022-09-13T07:22:12;11.80;99.90
21267;DHT22;10791;53.108;18.326;2022-09-13T07:27:15;12.20;99.90
21267;DHT22;10791;53.108;18.326;2022-09-13T07:32:19;12.50;99.90
21267;DHT22;10791;53.108;18.326;2022-09-13T07:37:22;12.90;99.90
21267;DHT22;10791;53.108;18.326;2022-09-13T07:42:25;13.20;99.90
21267;DHT22;10791;53.108;18.326;2022-09-13T07:47:31;13.50;99.90
21267;DHT22;10791;53.108;18.326;2022-09-13T07:52:35;13.90;99.90
21267;DHT22;10791;53.108;18.326;2022-09-13T07:57:39;14.20;99.90
21267;DHT22;10791;53.108;18.326;2022-09-13T08:02:43;14.40;99.90
21267;DHT22;10791;53.108;18.326;2022-09-13T08:07:46;14.60;99.90
21267;DHT22;10791;53.108;18.326;2022-09-13T08:12:49;14.90;99.90
21267;DHT22;10791;53.108;18.326;2022-09-13T08:17:52;15.10;99.90
21267;DHT22;10791;53.108;18.326;2022-09-13T08:22:59;15.50;99.90
21267;DHT22;10791;53.108;18.326;2022-09-13T08:28:09;15.80;99.90
21267;DHT22;10791;53.108;18.326;2022-09-13T08:33:17;16.30;99.90
21267;DHT22;10791;53.108;18.326;2022-09-13T08:38:22;16.70;99.90
21267;DHT22;10791;53.108;18.326;2022-09-13T08:43:48;17.00;99.90
21267;DHT22;10791;53.108;18.326;2022-09-13T08:48:57;17.30;99.90
21267;DHT22;10791;53.108;18.326;2022-09-13T08:54:00;17.60;99.90
21267;DHT22;10791;53.108;18.326;2022-09-13T09:09:34;18.20;99.90
21267;DHT22;10791;53.108;18.326;2022-09-13T09:14:46;18.60;99.90
21267;DHT22;10791;53.108;18.326;2022-09-13T09:20:15;19.00;99.90
21267;DHT22;10791;53.108;18.326;2022-09-13T09:25:23;19.20;99.90
21267;DHT22;10791;53.108;18.326;2022-09-13T09:30:37;19.00;99.90
21267;DHT22;10791;53.108;18.326;2022-09-13T09:41:04;18.90;99.90
21267;DHT22;10791;53.108;18.326;2022-09-13T09:46:10;18.80;99.90
21267;DHT22;10791;53.108;18.326;2022-09-13T09:51:17;18.70;99.90
21267;DHT22;10791;53.108;18.326;2022-09-13T09:56:26;18.60;99.90
21267;DHT22;10791;53.108;18.326;2022-09-13T10:01:33;18.40;99.90
21267;DHT22;10791;53.108;18.326;2022-09-13T10:06:40;18.30;99.90
21267;DHT22;10791;53.108;18.326;2022-09-13T10:11:58;18.10;99.90
21267;DHT22;10791;53.108;18.326;2022-09-13T10:22:16;17.80;99.90
21267;DHT22;10791;53.108;18.326;2022-09-13T10:27:46;17.80;99.90
21267;DHT22;10791;53.108;18.326;2022-09-13T10:32:57;17.70;99.90
21267;DHT22;10791;53.108;18.326;2022-09-13T10:38:01;17.90;99.90
21267;DHT22;10791;53.108;18.326;2022-09-13T10:43:15;17.90;99.90
21267;DHT22;10791;53.108;18.326;2022-09-13T10:48:22;17.90;99.90
21267;DHT22;10791;53.108;18.326;2022-09-13T10:53:47;18.10;99.90
21267;DHT22;10791;53.108;18.326;2022-09-13T10:58:52;18.20;99.90
21267;DHT22;10791;53.108;18.326;2022-09-13T11:04:40;18.50;99.90
21267;DHT22;10791;53.108;18.326;2022-09-13T11:09:57;18.80;99.90
21267;DHT22;10791;53.108;18.326;2022-09-13T11:15:48;19.20;99.90
21267;DHT22;10791;53.108;18.326;2022-09-13T11:26:59;19.40;99.90
21267;DHT22;10791;53.108;18.326;2022-09-13T11:54:24;20.00;99.90
21267;DHT22;10791;53.108;18.326;2022-09-13T12:00:04;19.80;99.90
21267;DHT22;10791;53.108;18.326;2022-09-13T12:05:14;19.70;99.90
21267;DHT22;10791;53.108;18.326;2022-09-13T12:10:31;19.70;99.90
21267;DHT22;10791;53.108;18.326;2022-09-13T12:15:39;19.70;99.90
21267;DHT22;10791;53.108;18.326;2022-09-13T12:20:57;19.60;99.90
21267;DHT22;10791;53.108;18.326;2022-09-13T12:26:34;19.40;99.90
21267;DHT22;10791;53.108;18.326;2022-09-13T12:31:40;19.40;99.90
21267;DHT22;10791;53.108;18.326;2022-09-13T12:37:00;19.30;99.90
21267;DHT22;10791;53.108;18.326;2022-09-13T12:42:47;19.20;99.90
21267;DHT22;10791;53.108;18.326;2022-09-13T12:47:57;19.20;99.90
21267;DHT22;10791;53.108;18.326;2022-09-13T13:04:12;19.20;99.90
21267;DHT22;10791;53.108;18.326;2022-09-13T13:09:38;19.20;99.90
21267;DHT22;10791;53.108;18.326;2022-09-13T13:14:46;19.00;99.90
21267;DHT22;10791;53.108;18.326;2022-09-13T13:19:50;19.00;99.90
21267;DHT22;10791;53.108;18.326;2022-09-13T13:24:54;19.10;99.90
21267;DHT22;10791;53.108;18.326;2022-09-13T13:30:41;19.20;99.90
21267;DHT22;10791;53.108;18.326;2022-09-13T13:35:45;19.30;99.90
21267;DHT22;10791;53.108;18.326;2022-09-13T13:40:50;19.40;99.90
21267;DHT22;10791;53.108;18.326;2022-09-13T13:45:59;19.40;99.90
21267;DHT22;10791;53.108;18.326;2022-09-13T13:51:25;19.30;99.90
21267;DHT22;10791;53.108;18.326;2022-09-13T13:56:34;19.30;99.90
21267;DHT22;10791;53.108;18.326;2022-09-13T14:01:51;19.20;99.90
21267;DHT22;10791;53.108;18.326;2022-09-13T14:07:11;19.20;99.90
21267;DHT22;10791;53.108;18.326;2022-09-13T14:12:30;19.20;99.90
21267;DHT22;10791;53.108;18.326;2022-09-13T14:23:18;19.30;99.90
21267;DHT22;10791;53.108;18.326;2022-09-13T14:28:22;19.30;99.90
21267;DHT22;10791;53.108;18.326;2022-09-13T14:33:33;19.30;99.90
21267;DHT22;10791;53.108;18.326;2022-09-13T14:38:47;19.40;99.90
21267;DHT22;10791;53.108;18.326;2022-09-13T14:44:22;19.40;99.90
21267;DHT22;10791;53.108;18.326;2022-09-13T14:49:36;19.30;99.90
21267;DHT22;10791;53.108;18.326;2022-09-13T14:54:44;19.30;99.90
21267;DHT22;10791;53.108;18.326;2022-09-13T14:59:55;19.30;99.90
21267;DHT22;10791;53.108;18.326;2022-09-13T15:05:05;19.20;99.90
21267;DHT22;10791;53.108;18.326;2022-09-13T15:15:25;19.10;99.90
21267;DHT22;10791;53.108;18.326;2022-09-13T15:21:04;19.00;99.90
21267;DHT22;10791;53.108;18.326;2022-09-13T15:26:20;19.00;99.90
21267;DHT22;10791;53.108;18.326;2022-09-13T15:31:25;18.90;99.90
21267;DHT22;10791;53.108;18.326;2022-09-13T15:36:33;18.70;99.90
21267;DHT22;10791;53.108;18.326;2022-09-13T15:41:39;18.60;99.90
21267;DHT22;10791;53.108;18.326;2022-09-13T15:46:47;18.50;99.90
21267;DHT22;10791;53.108;18.326;2022-09-13T15:51:59;18.40;99.90
21267;DHT22;10791;53.108;18.326;2022-09-13T15:57:12;18.40;99.90
21267;DHT22;10791;53.108;18.326;2022-09-13T16:02:21;18.30;99.90
21267;DHT22;10791;53.108;18.326;2022-09-13T16:07:26;18.30;99.90
21267;DHT22;10791;53.108;18.326;2022-09-13T16:12:29;18.30;99.90
21267;DHT22;10791;53.108;18.326;2022-09-13T16:17:33;18.30;99.90
21267;DHT22;10791;53.108;18.326;2022-09-13T16:22:37;18.20;99.90
21267;DHT22;10791;53.108;18.326;2022-09-13T16:27:41;18.20;99.90
21267;DHT22;10791;53.108;18.326;2022-09-13T16:32:46;18.10;99.90
21267;DHT22;10791;53.108;18.326;2022-09-13T16:37:50;18.10;99.90
21267;DHT22;10791;53.108;18.326;2022-09-13T16:42:55;18.00;99.90
21267;DHT22;10791;53.108;18.326;2022-09-13T16:47:59;17.90;99.90
21267;DHT22;10791;53.108;18.326;2022-09-13T16:53:03;17.90;99.90
21267;DHT22;10791;53.108;18.326;2022-09-13T16:58:06;17.80;99.90
21267;DHT22;10791;53.108;18.326;2022-09-13T17:03:10;17.80;99.90
21267;DHT22;10791;53.108;18.326;2022-09-13T17:08:13;17.70;99.90
21267;DHT22;10791;53.108;18.326;2022-09-13T17:13:17;17.70;99.90
21267;DHT22;10791;53.108;18.326;2022-09-13T17:18:21;17.60;99.90
21267;DHT22;10791;53.108;18.326;2022-09-13T17:23:25;17.60;99.90
21267;DHT22;10791;53.108;18.326;2022-09-13T17:28:29;17.50;99.90
21267;DHT22;10791;53.108;18.326;2022-09-13T17:33:32;17.50;99.90
21267;DHT22;10791;53.108;18.326;2022-09-13T17:38:36;17.50;99.90
21267;DHT22;10791;53.108;18.326;2022-09-13T17:43:41;17.40;99.90
21267;DHT22;10791;53.108;18.326;2022-09-13T17:48:45;17.40;99.90
21267;DHT22;10791;53.108;18.326;2022-09-13T17:53:51;17.30;99.90
21267;DHT22;10791;53.108;18.326;2022-09-13T17:59:16;17.10;99.90
21267;DHT22;10791;53.108;18.326;2022-09-13T18:04:22;16.90;99.90
21267;DHT22;10791;53.108;18.326;2022-09-13T18:09:26;16.70;99.90
21267;DHT22;10791;53.108;18.326;2022-09-13T18:14:29;16.60;99.90
21267;DHT22;10791;53.108;18.326;2022-09-13T18:19:36;16.40;99.90
21267;DHT22;10791;53.108;18.326;2022-09-13T18:24:48;16.40;99.90
21267;DHT22;10791;53.108;18.326;2022-09-13T18:29:52;16.30;99.90
21267;DHT22;10791;53.108;18.326;2022-09-13T18:34:56;16.30;99.90
21267;DHT22;10791;53.108;18.326;2022-09-13T18:40:01;16.20;99.90
21267;DHT22;10791;53.108;18.326;2022-09-13T18:45:07;16.20;99.90
21267;DHT22;10791;53.108;18.326;2022-09-13T18:50:12;16.10;99.90
21267;DHT22;10791;53.108;18.326;2022-09-13T18:55:22;16.00;99.90
21267;DHT22;10791;53.108;18.326;2022-09-13T19:00:25;16.00;99.90
21267;DHT22;10791;53.108;18.326;2022-09-13T19:05:34;15.80;99.90
21267;DHT22;10791;53.108;18.326;2022-09-13T19:10:41;15.70;99.90
21267;DHT22;10791;53.108;18.326;2022-09-13T19:15:47;15.70;99.90
21267;DHT22;10791;53.108;18.326;2022-09-13T19:20:51;15.50;99.90
21267;DHT22;10791;53.108;18.326;2022-09-13T19:26:02;15.40;99.90
21267;DHT22;10791;53.108;18.326;2022-09-13T19:31:08;15.40;99.90
21267;DHT22;10791;53.108;18.326;2022-09-13T19:36:16;15.20;99.90
21267;DHT22;10791;53.108;18.326;2022-09-13T19:41:22;15.00;99.90
21267;DHT22;10791;53.108;18.326;2022-09-13T19:46:28;14.90;99.90
21267;DHT22;10791;53.108;18.326;2022-09-13T19:51:36;14.80;99.90
21267;DHT22;10791;53.108;18.326;2022-09-13T19:56:41;14.60;99.90
21267;DHT22;10791;53.108;18.326;2022-09-13T20:01:47;14.50;99.90
21267;DHT22;10791;53.108;18.326;2022-09-13T20:06:51;14.40;99.90
21267;DHT22;10791;53.108;18.326;2022-09-13T20:11:55;14.30;99.90
21267;DHT22;10791;53.108;18.326;2022-09-13T20:17:03;14.30;99.90
21267;DHT22;10791;53.108;18.326;2022-09-13T20:22:09;14.30;99.90
21267;DHT22;10791;53.108;18.326;2022-09-13T20:27:13;14.20;99.90
21267;DHT22;10791;53.108;18.326;2022-09-13T20:32:17;14.20;99.90
21267;DHT22;10791;53.108;18.326;2022-09-13T20:37:21;14.00;99.90
21267;DHT22;10791;53.108;18.326;2022-09-13T20:42:28;13.90;99.90
21267;DHT22;10791;53.108;18.326;2022-09-13T20:47:31;13.90;99.90
21267;DHT22;10791;53.108;18.326;2022-09-13T20:52:35;13.90;99.90
21267;DHT22;10791;53.108;18.326;2022-09-13T20:57:39;13.90;99.90
21267;DHT22;10791;53.108;18.326;2022-09-13T21:02:43;14.00;99.90
21267;DHT22;10791;53.108;18.326;2022-09-13T21:07:48;14.00;99.90
21267;DHT22;10791;53.108;18.326;2022-09-13T21:13:10;14.10;99.90
21267;DHT22;10791;53.108;18.326;2022-09-13T21:18:15;14.20;99.90
21267;DHT22;10791;53.108;18.326;2022-09-13T21:23:19;14.20;99.90
21267;DHT22;10791;53.108;18.326;2022-09-13T21:28:23;14.30;99.90
21267;DHT22;10791;53.108;18.326;2022-09-13T21:33:26;14.40;99.90
21267;DHT22;10791;53.108;18.326;2022-09-13T21:38:32;14.50;99.90
21267;DHT22;10791;53.108;18.326;2022-09-13T21:43:38;14.60;99.90
21267;DHT22;10791;53.108;18.326;2022-09-13T21:48:46;14.70;99.90
21267;DHT22;10791;53.108;18.326;2022-09-13T21:53:52;14.70;99.90
21267;DHT22;10791;53.108;18.326;2022-09-13T21:59:02;14.80;99.90
21267;DHT22;10791;53.108;18.326;2022-09-13T22:04:09;14.90;99.90
21267;DHT22;10791;53.108;18.326;2022-09-13T22:09:13;14.80;99.90
21267;DHT22;10791;53.108;18.326;2022-09-13T22:14:18;14.90;99.90
21267;DHT22;10791;53.108;18.326;2022-09-13T22:19:25;15.00;99.90
21267;DHT22;10791;53.108;18.326;2022-09-13T22:24:30;14.90;99.90
21267;DHT22;10791;53.108;18.326;2022-09-13T22:29:35;15.00;99.90
21267;DHT22;10791;53.108;18.326;2022-09-13T22:34:38;15.00;99.90
21267;DHT22;10791;53.108;18.326;2022-09-13T22:39:44;15.00;99.90
21267;DHT22;10791;53.108;18.326;2022-09-13T22:44:47;14.80;99.90
21267;DHT22;10791;53.108;18.326;2022-09-13T22:49:51;14.80;99.90
21267;DHT22;10791;53.108;18.326;2022-09-13T22:54:54;14.70;99.90
21267;DHT22;10791;53.108;18.326;2022-09-13T22:59:57;14.60;99.90
21267;DHT22;10791;53.108;18.326;2022-09-13T23:05:02;14.60;99.90
21267;DHT22;10791;53.108;18.326;2022-09-13T23:10:06;14.50;99.90
21267;DHT22;10791;53.108;18.326;2022-09-13T23:15:10;14.50;99.90
21267;DHT22;10791;53.108;18.326;2022-09-13T23:20:16;14.40;99.90
21267;DHT22;10791;53.108;18.326;2022-09-13T23:25:22;14.40;99.90
21267;DHT22;10791;53.108;18.326;2022-09-13T23:30:25;14.40;99.90
21267;DHT22;10791;53.108;18.326;2022-09-13T23:35:28;14.50;99.90
21267;DHT22;10791;53.108;18.326;2022-09-13T23:40:33;14.50;99.90
21267;DHT22;10791;53.108;18.326;2022-09-13T23:45:37;14.60;99.90
21267;DHT22;10791;53.108;18.326;2022-09-13T23:50:41;14.70;99.90
21267;DHT22;10791;53.108;18.326;2022-09-13T23:55:45;14.70;99.90
